Hitachimaru — JD2063 — position and weather

sailwx.info

Track history (hours):
 
Tides and Currents Weather Stations Pressure Air Temp Water Temp Dewpoint Dewpoint Depression Visibility Wind Speed Wind Dir Waves Ship Positions

Hitachimaru

Last reported at 2015-Jul-28 07:32 UTC. Time now 2015-Jul-28 08:26 UTC.
Position N 35°37' E 139°58'.

Length 83 m; draft 4.5 m.

Type: Cargo ship. MMSI: 431301756.

Date/timePositionNaut miles runAvg speedWind from/ knotsBaromVisibWave heightAir tempDewpointWater temp
2015-Jul-28 07:32N 35°37' E 139°58'0 0.0
2015-Jul-28 06:20N 35°37' E 139°58'0 0.0
2015-Jul-28 05:32N 35°37' E 139°58'0 0.0
2015-Jul-28 04:32N 35°37' E 139°58'1 0.8
2015-Jul-28 03:33N 35°36' E 139°57'1211.6
2015-Jul-28 02:33N 35°27' E 139°49'1110.8
2015-Jul-28 01:33N 35°16' E 139°46'1111.5
2015-Jul-28 00:33N 35°05' E 139°44'241 9.9
2015-Jul-27 00:05N 34°09' E 134°59'1710.7
2015-Jul-26 22:29N 34°25' E 135°06'1011.1
2015-Jul-26 21:32N 34°32' E 135°16'9 9.5
2015-Jul-26 20:33N 34°35' E 135°26'1 0.1
2015-Jul-26 06:30N 34°34' E 135°27'0 0.0
2015-Jul-26 05:29N 34°34' E 135°27'2 0.4
2015-Jul-26 01:27N 34°35' E 135°28'0 0.0
2015-Jul-25 22:33N 34°35' E 135°28'6 6.2
2015-Jul-25 21:34N 34°36' E 135°20'1313.0
2015-Jul-25 20:33N 34°35' E 135°04'1212.0
2015-Jul-25 19:33N 34°38' E 134°50'12 0.9
2015-Jul-25 05:33N 34°36' E 135°04'1312.1
2015-Jul-25 04:30N 34°23' E 135°01'1212.1
2015-Jul-25 03:33N 34°12' E 134°60'229 8.7
2015-Jul-24 01:13N 34°60' E 139°32'711.3
2015-Jul-24 00:33N 35°04' E 139°39'1111.4
2015-Jul-23 23:33N 35°14' E 139°46'1110.8
2015-Jul-23 22:33N 35°25' E 139°43'7 6.9
2015-Jul-23 21:33N 35°22' E 139°51'0 0.0
2015-Jul-23 20:31N 35°22' E 139°51'0 0.0
2015-Jul-23 19:31N 35°22' E 139°51'0 0.0
2015-Jul-23 18:31N 35°22' E 139°51'0 0.0
2015-Jul-23 17:31N 35°22' E 139°51'0 0.0
2015-Jul-23 16:28N 35°22' E 139°51'0 0.0
2015-Jul-23 15:28N 35°22' E 139°51'3 3.0
2015-Jul-23 14:34N 35°24' E 139°50'0 0.1
2015-Jul-23 13:31N 35°24' E 139°50'0 0.0
2015-Jul-23 12:31N 35°24' E 139°50'0 0.0
2015-Jul-23 11:33N 35°24' E 139°50'0 0.0
2015-Jul-23 10:34N 35°24' E 139°50'0 0.0
2015-Jul-23 09:33N 35°24' E 139°50'0 0.0
2015-Jul-23 08:33N 35°24' E 139°50'0 0.0
2015-Jul-23 07:34N 35°24' E 139°50'0 0.0
2015-Jul-23 06:33N 35°24' E 139°50'0 0.0
2015-Jul-23 05:33N 35°24' E 139°50'0 0.0
2015-Jul-23 04:33N 35°24' E 139°50'0 0.0
2015-Jul-23 03:33N 35°24' E 139°50'0 0.0
2015-Jul-23 02:33N 35°24' E 139°50'0 0.0
2015-Jul-23 01:33N 35°24' E 139°50'0 0.0
2015-Jul-23 00:33N 35°24' E 139°50'0 0.0
2015-Jul-22 23:34N 35°24' E 139°50'0 0.0
2015-Jul-22 22:34N 35°24' E 139°50'0 0.0
2015-Jul-22 21:33N 35°24' E 139°50'0 0.0
2015-Jul-22 20:33N 35°24' E 139°50'0 0.0
2015-Jul-22 19:33N 35°24' E 139°50'0 0.0
2015-Jul-22 18:33N 35°24' E 139°50'0 0.0
2015-Jul-22 17:33N 35°24' E 139°50'0 0.0
2015-Jul-22 16:33N 35°24' E 139°50'0 0.0
2015-Jul-22 15:33N 35°24' E 139°50'0 0.0
2015-Jul-22 14:33N 35°24' E 139°50'0 0.0
2015-Jul-22 13:33N 35°24' E 139°50'0 0.0
2015-Jul-22 12:33N 35°24' E 139°50'0 0.0
2015-Jul-22 11:33N 35°24' E 139°50'0 0.0
2015-Jul-22 10:33N 35°24' E 139°50'0 0.0
2015-Jul-22 09:33N 35°24' E 139°50'0 0.0
2015-Jul-22 08:33N 35°24' E 139°50'0 0.0
2015-Jul-22 07:34N 35°24' E 139°50'0 0.0
2015-Jul-22 06:33N 35°24' E 139°50'0 0.0
2015-Jul-22 05:33N 35°24' E 139°50'0 0.0
2015-Jul-22 04:33N 35°24' E 139°50'0 0.0
2015-Jul-22 03:33N 35°24' E 139°50'0 0.0
2015-Jul-22 02:33N 35°24' E 139°50'0 0.1
2015-Jul-22 01:33N 35°24' E 139°50'0 0.0
2015-Jul-22 00:33N 35°24' E 139°50'0 0.0
2015-Jul-21 23:34N 35°24' E 139°50'0 0.0
2015-Jul-21 22:34N 35°24' E 139°50'0 0.0
2015-Jul-21 21:33N 35°24' E 139°50'0 0.0
2015-Jul-21 20:33N 35°24' E 139°50'0 0.0
2015-Jul-21 19:32N 35°24' E 139°50'0 0.0
2015-Jul-21 18:32N 35°24' E 139°50'0 0.0
2015-Jul-21 17:33N 35°24' E 139°50'0 0.0
2015-Jul-21 16:34N 35°24' E 139°50'0 0.0
2015-Jul-21 15:34N 35°24' E 139°50'0 0.0
2015-Jul-21 14:34N 35°24' E 139°50'0 0.0
2015-Jul-21 13:28N 35°24' E 139°50'0 0.0
2015-Jul-21 12:33N 35°24' E 139°50'0 0.0
2015-Jul-21 11:31N 35°24' E 139°50'2 1.7
2015-Jul-21 10:33N 35°26' E 139°50'9 9.5
2015-Jul-21 09:33N 35°34' E 139°56'7 6.5
2015-Jul-21 08:25N 35°41' E 139°57'0 0.0
2015-Jul-21 07:22N 35°41' E 139°57'0 0.0
2015-Jul-21 05:28N 35°41' E 139°57'0 0.0
2015-Jul-21 04:22N 35°41' E 139°57'4 5.0
2015-Jul-21 03:33N 35°37' E 139°58'1 0.6
2015-Jul-21 02:26N 35°37' E 139°58'0 0.1
2015-Jul-21 01:29N 35°37' E 139°58'0 0.0
2015-Jul-21 00:17N 35°37' E 139°58'0 0.0
2015-Jul-20 23:29N 35°37' E 139°58'0 0.1
2015-Jul-20 22:32N 35°37' E 139°58'3 2.9
2015-Jul-20 21:33N 35°40' E 139°58'1 0.7
2015-Jul-20 20:20N 35°40' E 139°57'0 0.0
2015-Jul-20 19:14N 35°40' E 139°57'0 0.0
2015-Jul-20 18:32N 35°40' E 139°57'1 0.7
2015-Jul-20 16:33N 35°39' E 139°58'3 1.7
2015-Jul-20 15:05N 35°37' E 139°58'0 0.0
2015-Jul-20 14:17N 35°37' E 139°58'0 0.1
2015-Jul-20 13:32N 35°37' E 139°58'0 0.0
2015-Jul-20 12:32N 35°37' E 139°58'0 0.0
2015-Jul-20 11:32N 35°37' E 139°58'0 0.0
2015-Jul-20 10:32N 35°37' E 139°58'0 0.0
2015-Jul-20 09:29N 35°37' E 139°58'0 0.0
2015-Jul-20 08:29N 35°37' E 139°58'0 0.0
2015-Jul-20 07:17N 35°37' E 139°58'0 0.1
2015-Jul-20 06:29N 35°37' E 139°58'0 0.0
2015-Jul-20 05:29N 35°37' E 139°58'0 0.0
2015-Jul-20 04:29N 35°37' E 139°58'0 0.0
2015-Jul-20 03:29N 35°37' E 139°58'0 0.0
2015-Jul-20 02:05N 35°37' E 139°58'0 0.0
2015-Jul-20 01:23N 35°37' E 139°58'0 0.0
2015-Jul-20 00:23N 35°37' E 139°58'0 0.0
2015-Jul-19 23:29N 35°37' E 139°58'0 0.0
2015-Jul-19 22:29N 35°37' E 139°58'0 0.0
2015-Jul-19 21:29N 35°37' E 139°58'0 0.1
2015-Jul-19 20:32N 35°37' E 139°58'0 0.0
2015-Jul-19 19:33N 35°37' E 139°58'9 8.8
2015-Jul-19 18:33N 35°29' E 139°52'1211.5
2015-Jul-19 17:33N 35°20' E 139°44'1111.4
2015-Jul-19 16:34N 35°09' E 139°46'2512.6
2015-Jul-19 14:33N 34°52' E 139°23'22210.0
2015-Jul-18 16:17N 34°01' E 135°01'810.7
2015-Jul-18 15:33N 34°09' E 134°59'19 9.4
2015-Jul-18 13:33N 34°26' E 135°07'1111.2
2015-Jul-18 12:33N 34°33' E 135°17'8 7.9
2015-Jul-18 11:33N 34°34' E 135°27'  
Track history (hours):
 
Tides and Currents Weather Stations Pressure Air Temp Water Temp Dewpoint Dewpoint Depression Visibility Wind Speed Wind Dir Waves Ship Positions

Hitachimaru

Last reported at 2015-Jul-28 07:32 UTC. Time now 2015-Jul-28 08:26 UTC.
Position N 35°37' E 139°58'.

Length 83 m; draft 4.5 m.

Type: Cargo ship. MMSI: 431301756.

Date/timePositionNaut miles runAvg speedWind from/ knotsBaromVisibWave heightAir tempDewpointWater temp
2015-Jul-28 07:32N 35°37' E 139°58'0 0.0
2015-Jul-28 06:20N 35°37' E 139°58'0 0.0
2015-Jul-28 05:32N 35°37' E 139°58'0 0.0
2015-Jul-28 04:32N 35°37' E 139°58'1 0.8
2015-Jul-28 03:33N 35°36' E 139°57'1211.6
2015-Jul-28 02:33N 35°27' E 139°49'1110.8
2015-Jul-28 01:33N 35°16' E 139°46'1111.5
2015-Jul-28 00:33N 35°05' E 139°44'241 9.9
2015-Jul-27 00:05N 34°09' E 134°59'1710.7
2015-Jul-26 22:29N 34°25' E 135°06'1011.1
2015-Jul-26 21:32N 34°32' E 135°16'9 9.5
2015-Jul-26 20:33N 34°35' E 135°26'1 0.1
2015-Jul-26 06:30N 34°34' E 135°27'0 0.0
2015-Jul-26 05:29N 34°34' E 135°27'2 0.4
2015-Jul-26 01:27N 34°35' E 135°28'0 0.0
2015-Jul-25 22:33N 34°35' E 135°28'6 6.2
2015-Jul-25 21:34N 34°36' E 135°20'1313.0
2015-Jul-25 20:33N 34°35' E 135°04'1212.0
2015-Jul-25 19:33N 34°38' E 134°50'12 0.9
2015-Jul-25 05:33N 34°36' E 135°04'1312.1
2015-Jul-25 04:30N 34°23' E 135°01'1212.1
2015-Jul-25 03:33N 34°12' E 134°60'229 8.7
2015-Jul-24 01:13N 34°60' E 139°32'711.3
2015-Jul-24 00:33N 35°04' E 139°39'1111.4
2015-Jul-23 23:33N 35°14' E 139°46'1110.8
2015-Jul-23 22:33N 35°25' E 139°43'7 6.9
2015-Jul-23 21:33N 35°22' E 139°51'0 0.0
2015-Jul-23 20:31N 35°22' E 139°51'0 0.0
2015-Jul-23 19:31N 35°22' E 139°51'0 0.0
2015-Jul-23 18:31N 35°22' E 139°51'0 0.0
2015-Jul-23 17:31N 35°22' E 139°51'0 0.0
2015-Jul-23 16:28N 35°22' E 139°51'0 0.0
2015-Jul-23 15:28N 35°22' E 139°51'3 3.0
2015-Jul-23 14:34N 35°24' E 139°50'0 0.1
2015-Jul-23 13:31N 35°24' E 139°50'0 0.0
2015-Jul-23 12:31N 35°24' E 139°50'0 0.0
2015-Jul-23 11:33N 35°24' E 139°50'0 0.0
2015-Jul-23 10:34N 35°24' E 139°50'0 0.0
2015-Jul-23 09:33N 35°24' E 139°50'0 0.0
2015-Jul-23 08:33N 35°24' E 139°50'0 0.0
2015-Jul-23 07:34N 35°24' E 139°50'0 0.0
2015-Jul-23 06:33N 35°24' E 139°50'0 0.0
2015-Jul-23 05:33N 35°24' E 139°50'0 0.0
2015-Jul-23 04:33N 35°24' E 139°50'0 0.0
2015-Jul-23 03:33N 35°24' E 139°50'0 0.0
2015-Jul-23 02:33N 35°24' E 139°50'0 0.0
2015-Jul-23 01:33N 35°24' E 139°50'0 0.0
2015-Jul-23 00:33N 35°24' E 139°50'0 0.0
2015-Jul-22 23:34N 35°24' E 139°50'0 0.0
2015-Jul-22 22:34N 35°24' E 139°50'0 0.0
2015-Jul-22 21:33N 35°24' E 139°50'0 0.0
2015-Jul-22 20:33N 35°24' E 139°50'0 0.0
2015-Jul-22 19:33N 35°24' E 139°50'0 0.0
2015-Jul-22 18:33N 35°24' E 139°50'0 0.0
2015-Jul-22 17:33N 35°24' E 139°50'0 0.0
2015-Jul-22 16:33N 35°24' E 139°50'0 0.0
2015-Jul-22 15:33N 35°24' E 139°50'0 0.0
2015-Jul-22 14:33N 35°24' E 139°50'0 0.0
2015-Jul-22 13:33N 35°24' E 139°50'0 0.0
2015-Jul-22 12:33N 35°24' E 139°50'0 0.0
2015-Jul-22 11:33N 35°24' E 139°50'0 0.0
2015-Jul-22 10:33N 35°24' E 139°50'0 0.0
2015-Jul-22 09:33N 35°24' E 139°50'0 0.0
2015-Jul-22 08:33N 35°24' E 139°50'0 0.0
2015-Jul-22 07:34N 35°24' E 139°50'0 0.0
2015-Jul-22 06:33N 35°24' E 139°50'0 0.0
2015-Jul-22 05:33N 35°24' E 139°50'0 0.0
2015-Jul-22 04:33N 35°24' E 139°50'0 0.0
2015-Jul-22 03:33N 35°24' E 139°50'0 0.0
2015-Jul-22 02:33N 35°24' E 139°50'0 0.1
2015-Jul-22 01:33N 35°24' E 139°50'0 0.0
2015-Jul-22 00:33N 35°24' E 139°50'0 0.0
2015-Jul-21 23:34N 35°24' E 139°50'0 0.0
2015-Jul-21 22:34N 35°24' E 139°50'0 0.0
2015-Jul-21 21:33N 35°24' E 139°50'0 0.0
2015-Jul-21 20:33N 35°24' E 139°50'0 0.0
2015-Jul-21 19:32N 35°24' E 139°50'0 0.0
2015-Jul-21 18:32N 35°24' E 139°50'0 0.0
2015-Jul-21 17:33N 35°24' E 139°50'0 0.0
2015-Jul-21 16:34N 35°24' E 139°50'0 0.0
2015-Jul-21 15:34N 35°24' E 139°50'0 0.0
2015-Jul-21 14:34N 35°24' E 139°50'0 0.0
2015-Jul-21 13:28N 35°24' E 139°50'0 0.0
2015-Jul-21 12:33N 35°24' E 139°50'0 0.0
2015-Jul-21 11:31N 35°24' E 139°50'2 1.7
2015-Jul-21 10:33N 35°26' E 139°50'9 9.5
2015-Jul-21 09:33N 35°34' E 139°56'7 6.5
2015-Jul-21 08:25N 35°41' E 139°57'0 0.0
2015-Jul-21 07:22N 35°41' E 139°57'0 0.0
2015-Jul-21 05:28N 35°41' E 139°57'0 0.0
2015-Jul-21 04:22N 35°41' E 139°57'4 5.0
2015-Jul-21 03:33N 35°37' E 139°58'1 0.6
2015-Jul-21 02:26N 35°37' E 139°58'0 0.1
2015-Jul-21 01:29N 35°37' E 139°58'0 0.0
2015-Jul-21 00:17N 35°37' E 139°58'0 0.0
2015-Jul-20 23:29N 35°37' E 139°58'0 0.1
2015-Jul-20 22:32N 35°37' E 139°58'3 2.9
2015-Jul-20 21:33N 35°40' E 139°58'1 0.7
2015-Jul-20 20:20N 35°40' E 139°57'0 0.0
2015-Jul-20 19:14N 35°40' E 139°57'0 0.0
2015-Jul-20 18:32N 35°40' E 139°57'1 0.7
2015-Jul-20 16:33N 35°39' E 139°58'3 1.7
2015-Jul-20 15:05N 35°37' E 139°58'0 0.0
2015-Jul-20 14:17N 35°37' E 139°58'0 0.1
2015-Jul-20 13:32N 35°37' E 139°58'0 0.0
2015-Jul-20 12:32N 35°37' E 139°58'0 0.0
2015-Jul-20 11:32N 35°37' E 139°58'0 0.0
2015-Jul-20 10:32N 35°37' E 139°58'0 0.0
2015-Jul-20 09:29N 35°37' E 139°58'0 0.0
2015-Jul-20 08:29N 35°37' E 139°58'0 0.0
2015-Jul-20 07:17N 35°37' E 139°58'0 0.1
2015-Jul-20 06:29N 35°37' E 139°58'0 0.0
2015-Jul-20 05:29N 35°37' E 139°58'0 0.0
2015-Jul-20 04:29N 35°37' E 139°58'0 0.0
2015-Jul-20 03:29N 35°37' E 139°58'0 0.0
2015-Jul-20 02:05N 35°37' E 139°58'0 0.0
2015-Jul-20 01:23N 35°37' E 139°58'0 0.0
2015-Jul-20 00:23N 35°37' E 139°58'0 0.0
2015-Jul-19 23:29N 35°37' E 139°58'0 0.0
2015-Jul-19 22:29N 35°37' E 139°58'0 0.0
2015-Jul-19 21:29N 35°37' E 139°58'0 0.1
2015-Jul-19 20:32N 35°37' E 139°58'0 0.0
2015-Jul-19 19:33N 35°37' E 139°58'9 8.8
2015-Jul-19 18:33N 35°29' E 139°52'1211.5
2015-Jul-19 17:33N 35°20' E 139°44'1111.4
2015-Jul-19 16:34N 35°09' E 139°46'2512.6
2015-Jul-19 14:33N 34°52' E 139°23'22210.0
2015-Jul-18 16:17N 34°01' E 135°01'810.7
2015-Jul-18 15:33N 34°09' E 134°59'19 9.4
2015-Jul-18 13:33N 34°26' E 135°07'1111.2
2015-Jul-18 12:33N 34°33' E 135°17'8 7.9
2015-Jul-18 11:33N 34°34' E 135°27'  

Dump ship's entire track history